Time;durP1;ratioP1;P1;durP2;ratioP2;P2;SDS_P1;SDS_P2;PMS_P1;PMS_P2;Temp;Humidity;BMP_temperature;BMP_pressure;BME280_temperature;BME280_humidity;BME280_pressure;Samples;Min_cycle;Max_cycle;Signal;HPM_P1;HPM_P2
2022/10/05 00:01:01;;;;;;;10.15;6.40;;;;;;;15.53;75.41;101680.63;6190513;23;20092;-64
2022/10/05 00:03:32;;;;;;;9.52;6.85;;;;;;;15.48;75.81;101686.81;6190627;23;20059;-64
2022/10/05 00:05:59;;;;;;;11.13;6.80;;;;;;;15.44;75.99;101683.25;6191460;23;20008;-64
2022/10/05 00:08:28;;;;;;;11.27;6.72;;;;;;;15.46;75.72;101685.91;6217571;23;20091;-64
2022/10/05 00:10:54;;;;;;;11.30;6.45;;;;;;;15.41;76.35;101677.00;6167033;23;20027;-64
2022/10/05 00:13:23;;;;;;;13.07;6.78;;;;;;;15.41;76.07;101675.22;6216745;23;20012;-64
2022/10/05 00:15:51;;;;;;;10.98;6.97;;;;;;;15.40;76.50;101678.78;6190461;23;20012;-64
2022/10/05 00:18:19;;;;;;;14.25;6.80;;;;;;;15.44;76.14;101682.34;6190513;23;20435;-64
2022/10/05 00:20:47;;;;;;;10.73;6.68;;;;;;;15.46;75.88;101672.59;6217172;23;20427;-64
2022/10/05 00:23:17;;;;;;;14.77;7.95;;;;;;;15.47;76.00;101671.72;6217033;23;20012;-64
2022/10/05 00:25:42;;;;;;;10.55;7.25;;;;;;;15.47;76.17;101669.06;6217107;23;20009;-64
2022/10/05 00:28:20;;;;;;;10.18;7.18;;;;;;;15.44;76.28;101663.72;6190524;23;20088;-64
2022/10/05 00:30:45;;;;;;;15.40;6.97;;;;;;;15.39;76.51;101666.38;6190311;23;20008;-64
2022/10/05 00:33:11;;;;;;;13.07;6.90;;;;;;;15.39;76.30;101660.16;6217198;23;20079;-64
2022/10/05 00:35:36;;;;;;;11.25;7.18;;;;;;;15.39;76.48;101653.06;6217398;23;20060;-64
2022/10/05 00:38:02;;;;;;;9.35;6.80;;;;;;;15.38;76.33;101667.25;6217304;23;20023;-64
2022/10/05 00:40:46;;;;;;;12.25;7.20;;;;;;;15.31;76.96;101660.13;6216905;23;20036;-64
2022/10/05 00:43:50;;;;;;;16.05;7.13;;;;;;;15.29;76.54;101651.25;6216421;23;20004;-64
2022/10/05 00:46:23;;;;;;;12.27;6.90;;;;;;;15.23;77.16;101659.19;6195500;23;20005;-64
2022/10/05 00:49:16;;;;;;;11.52;7.13;;;;;;;15.23;77.16;101661.84;6190618;23;20005;-64
2022/10/05 00:51:50;;;;;;;12.30;7.18;;;;;;;15.24;76.92;101660.97;6190789;23;20004;-64
2022/10/05 00:54:49;;;;;;;14.48;7.18;;;;;;;15.25;76.74;101661.00;6167135;23;20015;-64
2022/10/05 00:57:26;;;;;;;11.57;7.07;;;;;;;15.21;77.12;101661.84;6216894;23;20004;-64
2022/10/05 00:59:57;;;;;;;9.80;6.75;;;;;;;15.21;77.43;101660.97;6216816;23;20060;-64
2022/10/05 01:02:41;;;;;;;13.88;7.45;;;;;;;15.19;77.41;101652.06;6216864;23;20080;-64
2022/10/05 01:05:28;;;;;;;15.80;7.45;;;;;;;15.14;77.74;101648.50;6216704;23;20016;-64
2022/10/05 01:08:23;;;;;;;13.02;6.70;;;;;;;15.18;77.15;101651.19;6216943;23;20024;-64
2022/10/05 01:11:01;;;;;;;13.80;7.68;;;;;;;15.17;77.73;101656.50;6181584;23;20339;-64
2022/10/05 01:13:32;;;;;;;12.68;7.43;;;;;;;15.16;77.82;101644.97;6216735;23;20004;-64
2022/10/05 01:16:42;;;;;;;10.27;7.32;;;;;;;15.19;77.11;101642.31;6216695;23;20035;-64
2022/10/05 01:19:25;;;;;;;10.48;7.15;;;;;;;15.18;77.56;101636.97;6160129;23;20012;-64
2022/10/05 01:22:06;;;;;;;12.02;7.28;;;;;;;15.13;77.76;101625.44;6216678;23;20011;-64
2022/10/05 01:24:56;;;;;;;15.95;7.03;;;;;;;15.10;77.73;101631.63;6216645;23;20000;-64
2022/10/05 01:28:03;;;;;;;12.70;7.45;;;;;;;15.11;77.92;101627.19;6216388;23;20001;-64
2022/10/05 01:30:59;;;;;;;12.32;6.80;;;;;;;15.07;77.78;101623.59;6200235;23;20338;-64
2022/10/05 01:33:32;;;;;;;11.05;7.20;;;;;;;15.05;78.14;101614.75;6216482;23;20076;-64
2022/10/05 01:36:08;;;;;;;15.63;7.15;;;;;;;15.05;78.32;101627.16;6216844;23;20009;-64
2022/10/05 01:38:43;;;;;;;10.48;6.95;;;;;;;15.05;78.04;101620.06;6216888;23;20059;-64
2022/10/05 01:41:18;;;;;;;12.02;7.28;;;;;;;15.02;78.12;101618.25;6216821;23;20005;-64
2022/10/05 01:43:52;;;;;;;10.43;7.18;;;;;;;15.04;78.25;101623.63;6216294;23;20079;-64
2022/10/05 01:46:18;;;;;;;12.02;7.50;;;;;;;15.02;77.97;101618.25;6216340;23;20016;-64
2022/10/05 01:49:07;;;;;;;11.05;7.35;;;;;;;15.04;78.06;101618.28;6216434;23;20009;-64
2022/10/05 01:51:38;;;;;;;11.35;7.47;;;;;;;15.05;78.17;101622.72;6216408;23;20011;-64
2022/10/05 01:54:46;;;;;;;10.65;7.00;;;;;;;15.03;78.56;101613.81;6216207;23;20015;-64
2022/10/05 01:57:14;;;;;;;11.60;7.55;;;;;;;14.97;78.73;101604.06;6211592;23;20009;-64
2022/10/05 01:59:47;;;;;;;12.90;7.30;;;;;;;14.93;78.74;101601.38;6216177;23;20011;-64
2022/10/05 02:02:19;;;;;;;11.15;7.93;;;;;;;14.88;79.18;101598.69;6215901;23;20080;-64
2022/10/05 02:05:03;;;;;;;;;;;;;;;14.89;78.68;101591.59;6216827;23;20009;-64
2022/10/05 02:07:39;;;;;;;12.18;7.68;;;;;;;14.82;79.38;101593.34;6216516;23;19934;-64
2022/10/05 02:10:21;;;;;;;11.82;7.22;;;;;;;14.83;79.40;101586.25;6216239;23;20076;-64
2022/10/05 02:12:52;;;;;;;12.95;7.25;;;;;;;14.86;79.07;101587.16;6216223;23;20422;-64
2022/10/05 02:15:26;;;;;;;9.68;7.47;;;;;;;14.85;79.50;101576.50;6216175;23;20000;-64
2022/10/05 02:18:07;;;;;;;11.55;7.32;;;;;;;14.77;79.31;101577.38;6190945;23;20011;-64
2022/10/05 02:20:36;;;;;;;13.35;7.90;;;;;;;14.72;79.85;101584.41;6216443;23;20420;-64
2022/10/05 02:23:08;;;;;;;9.27;7.13;;;;;;;14.73;79.75;101578.22;6216255;23;20342;-64
2022/10/05 02:25:41;;;;;;;10.50;7.25;;;;;;;14.74;79.75;101577.34;6216124;23;20009;-64
2022/10/05 02:28:29;;;;;;;11.07;7.78;;;;;;;14.78;79.71;101575.59;6215971;23;20058;-64
2022/10/05 02:31:05;;;;;;;13.43;7.45;;;;;;;14.71;79.96;101574.66;6216250;23;20357;-64
2022/10/05 02:33:33;;;;;;;12.95;7.60;;;;;;;14.74;80.08;101565.81;6215721;23;20034;-64
2022/10/05 02:36:13;;;;;;;11.82;8.02;;;;;;;14.74;79.91;101569.34;6216150;23;20374;-64
2022/10/05 02:39:00;;;;;;;10.25;7.78;;;;;;;14.70;80.12;101564.91;6215975;23;20000;-64
2022/10/05 02:41:48;;;;;;;11.90;7.22;;;;;;;14.71;80.00;101557.81;6216148;23;20019;-64
2022/10/05 02:44:16;;;;;;;11.68;7.97;;;;;;;14.65;80.49;101548.03;6215192;23;20078;-64
2022/10/05 02:46:47;;;;;;;11.98;7.88;;;;;;;14.62;80.91;101549.78;6215886;23;20036;-65
2022/10/05 02:49:29;;;;;;;12.80;8.07;;;;;;;14.62;80.80;101547.13;6215902;23;20000;-64
2022/10/05 02:52:17;;;;;;;17.02;7.55;;;;;;;14.67;80.49;101550.69;6216147;23;20370;-64
2022/10/05 02:55:05;;;;;;;12.75;8.02;;;;;;;14.66;80.56;101541.81;6215886;23;20009;-64
2022/10/05 02:57:34;;;;;;;14.05;7.68;;;;;;;14.63;80.89;101543.56;6215664;23;20043;-64
2022/10/05 03:00:06;;;;;;;11.20;7.72;;;;;;;14.59;81.14;101547.97;6189932;23;20084;-64
2022/10/05 03:02:53;;;;;;;11.25;7.30;;;;;;;14.60;80.93;101535.56;6215365;23;20005;-64
2022/10/05 03:05:26;;;;;;;12.23;8.13;;;;;;;14.57;81.52;101533.78;6215550;23;20023;-64
2022/10/05 03:08:16;;;;;;;11.98;7.88;;;;;;;14.59;80.91;101531.13;6189598;23;20043;-64
2022/10/05 03:10:44;;;;;;;12.10;8.07;;;;;;;14.61;80.93;101521.41;6215716;23;20009;-64
2022/10/05 03:13:22;;;;;;;11.95;7.38;;;;;;;14.59;81.24;101523.16;6216236;23;20323;-64
2022/10/05 03:15:47;;;;;;;13.02;7.57;;;;;;;14.55;81.61;101519.59;6215714;23;20039;-64
2022/10/05 03:18:18;;;;;;;10.70;7.65;;;;;;;14.53;81.47;101516.03;6215683;23;20001;-64
2022/10/05 03:21:28;;;;;;;12.57;8.00;;;;;;;14.46;81.73;101520.38;6215848;23;20008;-64
2022/10/05 03:24:40;;;;;;;13.10;8.20;;;;;;;14.42;81.79;101529.22;6123540;23;20017;-64
2022/10/05 03:27:17;;;;;;;13.93;8.33;;;;;;;14.40;82.11;101525.69;6123840;23;20010;-64
2022/10/05 03:30:00;;;;;;;13.35;7.53;;;;;;;14.43;82.02;101517.75;6202512;23;20401;-64
2022/10/05 03:32:39;;;;;;;13.98;8.23;;;;;;;14.38;82.30;101527.44;6215669;23;20008;-64
2022/10/05 03:35:38;;;;;;;11.95;7.85;;;;;;;14.37;82.43;101528.31;6215637;23;20017;-64
2022/10/05 03:38:21;;;;;;;13.02;8.07;;;;;;;14.38;82.22;101526.53;6215611;23;20020;-64
2022/10/05 03:41:09;;;;;;;13.18;8.13;;;;;;;14.34;82.73;101519.44;6215677;23;20035;-64
2022/10/05 03:44:02;;;;;;;15.30;8.30;;;;;;;14.33;82.66;101522.97;6215438;23;20012;-64
2022/10/05 03:46:55;;;;;;;13.98;8.32;;;;;;;14.33;82.95;101525.63;6215475;23;20083;-64
2022/10/05 03:49:23;;;;;;;13.18;8.55;;;;;;;14.31;82.86;101516.78;6215391;23;20058;-64
2022/10/05 03:51:58;;;;;;;12.27;8.63;;;;;;;14.32;82.98;101522.09;6215332;23;20008;-64
2022/10/05 03:54:27;;;;;;;12.48;8.68;;;;;;;14.35;82.71;101521.22;6215538;23;20359;-64
2022/10/05 03:56:56;;;;;;;12.60;8.43;;;;;;;14.37;82.67;101516.78;6215701;23;20009;-64
2022/10/05 03:59:28;;;;;;;15.10;9.02;;;;;;;14.32;82.97;101511.47;6215410;23;20001;-64
2022/10/05 04:01:57;;;;;;;14.25;9.05;;;;;;;14.32;82.78;101513.22;6215359;23;20071;-64
2022/10/05 04:04:36;;;;;;;14.90;8.80;;;;;;;14.32;82.99;101511.47;6215158;23;20008;-64
2022/10/05 04:07:02;;;;;;;14.00;8.77;;;;;;;14.33;82.92;101509.69;6215734;23;20312;-64
2022/10/05 04:09:38;;;;;;;14.50;8.95;;;;;;;14.32;82.92;101516.78;6215680;23;20086;-64
2022/10/05 04:12:04;;;;;;;15.63;8.80;;;;;;;14.33;82.90;101521.19;6215340;23;20012;-64
2022/10/05 04:14:42;;;;;;;15.80;9.35;;;;;;;14.30;82.89;101510.53;6215377;23;20008;-64
2022/10/05 04:17:30;;;;;;;15.82;9.07;;;;;;;14.31;83.20;101536.28;6216480;23;20005;-64
2022/10/05 04:19:59;;;;;;;13.60;8.95;;;;;;;14.28;83.20;101525.59;6217517;23;20015;-64
2022/10/05 04:22:30;;;;;;;17.73;9.18;;;;;;;14.26;83.42;101514.06;6217136;23;20075;-64
2022/10/05 04:25:16;;;;;;;14.05;8.77;;;;;;;14.26;83.42;101524.69;6217469;23;20004;-64
2022/10/05 04:27:59;;;;;;;14.18;8.90;;;;;;;14.23;83.61;101517.59;6217418;23;20016;-64
2022/10/05 04:30:25;;;;;;;14.25;8.75;;;;;;;14.24;83.69;101521.16;6217112;23;20008;-64
2022/10/05 04:32:58;;;;;;;14.40;9.00;;;;;;;14.20;83.76;101512.25;6216930;23;20023;-64
2022/10/05 04:35:57;;;;;;;14.90;8.52;;;;;;;14.23;83.91;101516.72;6216944;23;20339;-64
2022/10/05 04:38:23;;;;;;;13.20;8.77;;;;;;;14.22;83.98;101512.28;6217097;23;20008;-64
2022/10/05 04:41:13;;;;;;;14.85;8.98;;;;;;;14.20;84.01;101514.91;6217044;23;20037;-64
2022/10/05 04:44:09;;;;;;;17.10;9.07;;;;;;;14.21;83.95;101508.72;6216804;23;20004;-64
2022/10/05 04:46:57;;;;;;;15.60;9.18;;;;;;;14.21;83.94;101508.72;6216885;23;20012;-64
2022/10/05 04:49:31;;;;;;;15.77;8.60;;;;;;;14.23;84.34;101506.09;6217236;23;20336;-64
2022/10/05 04:52:02;;;;;;;17.08;9.02;;;;;;;14.25;83.50;101501.66;6190268;23;20024;-64
2022/10/05 04:54:28;;;;;;;16.50;8.18;;;;;;;14.27;83.70;101499.91;6216865;23;20016;-64
2022/10/05 04:57:04;;;;;;;13.32;8.02;;;;;;;14.29;83.11;101498.13;6217136;23;20059;-64
2022/10/05 04:59:57;;;;;;;11.95;8.00;;;;;;;14.29;83.41;101503.44;6216816;23;20126;-64
2022/10/05 05:02:31;;;;;;;;;;;;;;;14.35;82.37;101499.97;6217159;23;20005;-64
2022/10/05 05:05:36;;;;;;;14.13;7.70;;;;;;;14.34;82.55;101492.84;6217173;23;19908;-64
2022/10/05 05:08:26;;;;;;;11.25;7.32;;;;;;;14.37;82.31;101500.84;6216776;23;20051;-64
2022/10/05 05:11:08;;;;;;;11.48;7.30;;;;;;;14.39;82.11;101492.00;6216815;23;20016;-64
2022/10/05 05:14:16;;;;;;;11.63;6.45;;;;;;;14.39;82.02;101501.72;6216852;23;20382;-64
2022/10/05 05:16:44;;;;;;;9.13;6.38;;;;;;;14.38;81.71;101494.63;6216711;23;20080;-64
2022/10/05 05:19:26;;;;;;;10.27;6.72;;;;;;;14.38;81.59;101498.19;6216671;23;20005;-64
2022/10/05 05:22:23;;;;;;;9.17;6.07;;;;;;;14.39;81.50;101489.34;6216934;23;20027;-64
2022/10/05 05:25:20;;;;;;;12.00;6.30;;;;;;;14.39;81.21;101492.00;6216677;23;20008;-64
2022/10/05 05:27:50;;;;;;;10.73;6.13;;;;;;;14.35;81.52;101495.53;6167471;23;20063;-64
2022/10/05 05:30:20;;;;;;;10.43;6.03;;;;;;;14.37;81.51;101499.06;6216482;23;20009;-64
2022/10/05 05:33:17;;;;;;;11.52;6.15;;;;;;;14.37;81.40;101495.53;6216303;23;19997;-63
2022/10/05 05:35:45;;;;;;;11.20;5.88;;;;;;;14.33;81.87;101488.41;6216558;23;20017;-64
2022/10/05 05:38:27;;;;;;;11.27;6.07;;;;;;;14.32;82.12;101486.66;6216771;23;20009;-63
2022/10/05 05:41:32;;;;;;;9.85;6.00;;;;;;;14.31;81.66;101488.41;6189762;23;20335;-64
2022/10/05 05:44:09;;;;;;;9.70;6.35;;;;;;;14.27;82.45;101482.19;6195013;23;20004;-64
2022/10/05 05:46:40;;;;;;;9.18;6.50;;;;;;;14.30;82.07;101481.28;6216394;23;20076;-64
2022/10/05 05:49:20;;;;;;;13.23;6.32;;;;;;;14.31;82.03;101480.44;6216617;23;20360;-64
2022/10/05 05:52:02;;;;;;;10.23;5.88;;;;;;;14.31;82.07;101476.91;6216647;23;20043;-64
2022/10/05 05:54:38;;;;;;;10.52;6.18;;;;;;;14.27;82.17;101474.22;6216493;23;20065;-64
2022/10/05 05:57:24;;;;;;;13.80;5.90;;;;;;;14.28;81.81;101473.31;6216680;23;20378;-64
2022/10/05 06:00:06;;;;;;;8.75;5.68;;;;;;;14.28;81.80;101468.00;6216310;23;20005;-64
2022/10/05 06:02:41;;;;;;;8.23;5.78;;;;;;;14.32;81.55;101473.34;6216046;23;20001;-64
2022/10/05 06:05:39;;;;;;;8.85;5.65;;;;;;;14.34;81.22;101467.13;6216229;23;20331;-64
2022/10/05 06:08:40;;;;;;;7.28;4.93;;;;;;;14.34;80.91;101464.47;6216201;23;20430;-64
2022/10/05 06:11:15;;;;;;;8.27;5.30;;;;;;;14.36;81.06;101467.16;6216453;23;20404;-64
2022/10/05 06:13:42;;;;;;;9.10;4.85;;;;;;;14.38;80.79;101470.72;6216142;23;20005;-64
2022/10/05 06:16:37;;;;;;;10.38;5.30;;;;;;;14.40;80.88;101482.25;6215950;23;20435;-64
2022/10/05 06:19:10;;;;;;;6.68;4.60;;;;;;;14.39;80.72;101467.16;6216049;23;20005;-64
2022/10/05 06:22:11;;;;;;;9.73;5.35;;;;;;;14.40;80.63;101467.19;6215938;23;20371;-64
2022/10/05 06:25:00;;;;;;;9.77;4.72;;;;;;;14.39;80.75;101464.50;6195325;23;20008;-64
2022/10/05 06:27:36;;;;;;;9.98;5.07;;;;;;;14.39;80.45;101470.75;6216044;23;20000;-64
2022/10/05 06:30:15;;;;;;;7.15;4.68;;;;;;;14.39;80.41;101467.16;6216343;23;20111;-64
2022/10/05 06:32:56;;;;;;;8.25;5.03;;;;;;;14.42;80.60;101464.53;6215804;23;20493;-64
2022/10/05 06:35:59;;;;;;;7.05;4.72;;;;;;;14.42;80.43;101464.53;6215966;23;20458;-64
2022/10/05 06:38:47;;;;;;;7.97;4.85;;;;;;;14.43;80.48;101460.97;6216218;23;20016;-64
2022/10/05 06:41:58;;;;;;;7.20;5.13;;;;;;;14.46;79.87;101464.56;6215375;23;20416;-64
2022/10/05 06:44:40;;;;;;;9.88;4.85;;;;;;;14.47;80.32;101463.69;6197057;23;20451;-64
2022/10/05 06:47:24;;;;;;;9.25;5.00;;;;;;;14.49;79.82;101464.59;6215986;23;20100;-64
2022/10/05 06:50:03;;;;;;;9.45;5.18;;;;;;;14.52;79.94;101467.28;6215836;23;20412;-64
2022/10/05 06:52:35;;;;;;;6.82;4.88;;;;;;;14.57;79.56;101463.75;6215762;23;20494;-64
2022/10/05 06:55:21;;;;;;;6.47;4.77;;;;;;;14.57;79.67;101462.00;6215822;23;20012;-64
2022/10/05 06:57:50;;;;;;;10.68;5.15;;;;;;;14.61;79.75;101460.22;6216082;23;20072;-64
2022/10/05 07:00:24;;;;;;;8.32;4.93;;;;;;;14.62;79.84;101477.97;6215654;23;20062;-64
2022/10/05 07:03:04;;;;;;;9.10;5.10;;;;;;;14.64;79.83;101471.75;6215847;23;20028;-64
2022/10/05 07:06:10;;;;;;;7.35;5.20;;;;;;;14.66;79.89;101475.31;6215770;23;20005;-64
2022/10/05 07:09:05;;;;;;;7.13;5.20;;;;;;;14.65;79.39;101475.31;6169324;23;20004;-64
2022/10/05 07:11:49;;;;;;;8.15;4.72;;;;;;;14.66;79.96;101480.63;6109080;23;20085;-64
2022/10/05 07:14:34;;;;;;;8.95;5.20;;;;;;;14.68;79.71;101473.53;6215981;23;20009;-65
2022/10/05 07:17:30;;;;;;;9.35;4.97;;;;;;;14.71;79.67;101464.69;6216002;23;20004;-64
2022/10/05 07:20:02;;;;;;;8.30;4.97;;;;;;;14.76;79.48;101473.56;6215676;23;20007;-64
2022/10/05 07:22:34;;;;;;;7.32;4.75;;;;;;;14.77;79.63;101472.69;6215516;23;20023;-64
2022/10/05 07:25:20;;;;;;;8.05;4.93;;;;;;;14.83;79.68;101470.06;6188914;23;20442;-64
2022/10/05 07:28:07;;;;;;;8.80;4.85;;;;;;;14.85;79.80;101476.25;6215843;23;20016;-64
2022/10/05 07:30:44;;;;;;;8.25;4.55;;;;;;;14.85;79.48;101478.91;6215553;23;20012;-64
2022/10/05 07:33:23;;;;;;;7.75;4.47;;;;;;;14.88;79.25;101489.59;6215231;23;20067;-64
2022/10/05 07:39:11;;;;;;;7.40;4.63;;;;;;;14.94;79.12;101473.63;6215594;23;20086;-64
2022/10/05 07:41:47;;;;;;;6.07;4.10;;;;;;;14.96;79.04;101482.53;6215819;23;20004;-64
2022/10/05 07:44:25;;;;;;;10.70;4.38;;;;;;;14.96;78.59;101481.63;6215462;23;20013;-64
2022/10/05 07:47:11;;;;;;;7.60;4.45;;;;;;;14.99;78.66;101474.56;6215590;23;20332;-64
2022/10/05 07:49:48;;;;;;;7.85;4.65;;;;;;;15.00;78.90;101478.09;6215776;23;20067;-64
2022/10/05 07:52:26;;;;;;;8.95;4.85;;;;;;;15.10;78.54;101485.22;6216440;23;20035;-64
2022/10/05 07:55:21;;;;;;;7.53;4.57;;;;;;;15.16;79.06;101485.25;6217518;23;20008;-64
2022/10/05 07:58:26;;;;;;;7.53;4.50;;;;;;;15.20;78.38;101483.44;6217399;23;20422;-65
2022/10/05 08:01:13;;;;;;;6.78;4.30;;;;;;;15.23;78.56;101488.78;6156637;23;20066;-64
2022/10/05 08:04:03;;;;;;;8.05;3.90;;;;;;;15.24;78.03;101486.13;6217634;23;20009;-64
2022/10/05 08:06:38;;;;;;;8.82;4.30;;;;;;;15.27;77.43;101479.91;6217721;23;20018;-64
2022/10/05 08:09:16;;;;;;;7.13;4.40;;;;;;;15.27;77.79;101485.25;6217677;23;20008;-64
2022/10/05 08:11:55;;;;;;;10.73;4.45;;;;;;;15.30;77.49;101481.72;6217412;23;20055;-64
2022/10/05 08:14:30;;;;;;;7.45;4.30;;;;;;;15.34;78.02;101476.38;6217565;23;20088;-64
2022/10/05 08:16:59;;;;;;;7.28;4.30;;;;;;;15.38;77.48;101472.84;6217534;23;20017;-64
2022/10/05 08:19:36;;;;;;;7.57;4.28;;;;;;;15.45;77.59;101466.63;6217541;23;20031;-64
2022/10/05 08:22:12;;;;;;;6.78;4.13;;;;;;;15.51;77.19;101460.44;6217279;23;20005;-64
2022/10/05 08:24:45;;;;;;;7.45;4.00;;;;;;;15.58;77.49;101471.94;6217073;23;20039;-64
2022/10/05 08:27:45;;;;;;;8.27;4.25;;;;;;;15.64;77.11;101459.56;6217573;23;20008;-64
2022/10/05 08:30:14;;;;;;;8.00;3.97;;;;;;;15.72;76.60;101460.47;6217547;23;20009;-64
2022/10/05 08:32:49;;;;;;;11.68;4.35;;;;;;;15.76;76.48;101456.91;6217220;23;20054;-64
2022/10/05 08:35:33;;;;;;;8.48;3.80;;;;;;;15.81;75.81;101454.22;6190424;23;20016;-64
2022/10/05 08:38:02;;;;;;;12.13;3.85;;;;;;;15.83;76.11;101451.56;6216968;23;20408;-64
2022/10/05 08:40:34;;;;;;;7.28;4.20;;;;;;;15.91;75.56;101465.75;6190913;23;20481;-64
2022/10/05 08:43:18;;;;;;;8.20;3.80;;;;;;;15.96;75.74;101451.53;6217320;23;20028;-64
2022/10/05 08:46:05;;;;;;;5.55;3.58;;;;;;;15.97;75.55;101449.75;6217175;23;20009;-64
2022/10/05 08:48:56;;;;;;;8.82;3.80;;;;;;;15.99;75.65;101447.97;6216929;23;20082;-64
2022/10/05 08:51:43;;;;;;;5.90;3.80;;;;;;;16.04;75.08;101459.53;6217017;23;20067;-64
2022/10/05 08:54:37;;;;;;;8.00;4.07;;;;;;;16.11;75.67;101449.75;6216923;23;20091;-64
2022/10/05 08:57:14;;;;;;;6.70;3.70;;;;;;;16.14;75.07;101445.25;6216931;23;20001;-64
2022/10/05 08:59:42;;;;;;;8.68;3.80;;;;;;;16.17;74.59;101437.25;6217212;23;20005;-64
2022/10/05 09:02:19;;;;;;;7.53;3.65;;;;;;;16.24;74.91;101448.81;6216912;23;20062;-64
2022/10/05 09:05:02;;;;;;;7.35;3.80;;;;;;;16.27;74.97;101433.69;6216697;23;20036;-64
2022/10/05 09:08:01;;;;;;;9.63;4.05;;;;;;;16.38;74.36;101433.66;6190354;23;20431;-64
2022/10/05 09:11:04;;;;;;;9.52;3.38;;;;;;;16.50;73.96;101430.94;6217082;23;20383;-64
2022/10/05 09:13:47;;;;;;;;;;;;;;;16.57;72.94;101421.09;6217237;23;20000;-64
2022/10/05 09:16:22;;;;;;;;;;;;;;;16.62;73.13;101434.44;6217641;23;19950;-64
2022/10/05 09:18:50;;;;;;;5.85;3.38;;;;;;;16.65;73.42;101432.63;6217149;23;19939;-64
2022/10/05 09:21:41;;;;;;;7.35;3.80;;;;;;;16.70;73.71;101430.84;6216742;23;20004;-64
2022/10/05 09:24:22;;;;;;;8.30;3.67;;;;;;;16.78;72.57;101444.16;6216811;23;20139;-64
2022/10/05 09:26:53;;;;;;;5.95;3.60;;;;;;;16.81;72.97;101427.25;6216967;23;20012;-65
2022/10/05 09:29:40;;;;;;;6.05;3.15;;;;;;;16.87;72.31;101422.75;6216612;23;20005;-64
2022/10/05 09:32:42;;;;;;;5.07;3.60;;;;;;;16.85;72.42;101424.56;6216271;23;20005;-64
2022/10/05 09:35:32;;;;;;;7.43;3.63;;;;;;;16.90;72.11;101422.75;6216272;23;20016;-65
2022/10/05 09:38:42;;;;;;;7.07;3.45;;;;;;;16.91;72.16;101424.50;6216439;23;20431;-65
2022/10/05 09:41:30;;;;;;;6.10;3.50;;;;;;;17.00;71.90;101420.88;6216484;23;20005;-65
2022/10/05 09:44:11;;;;;;;7.15;3.90;;;;;;;17.06;72.09;101428.88;6200323;23;20312;-65
2022/10/05 09:46:45;;;;;;;6.55;3.72;;;;;;;17.11;72.15;101418.16;6216428;23;20080;-64
2022/10/05 09:49:38;;;;;;;7.55;3.60;;;;;;;17.11;71.52;101419.06;6216668;23;20012;-65
2022/10/05 09:52:57;;;;;;;5.97;3.58;;;;;;;17.08;71.31;101415.50;6216425;23;20007;-65
2022/10/05 09:55:38;;;;;;;5.95;3.20;;;;;;;17.07;72.23;101411.06;6095286;23;20042;-65
2022/10/05 09:58:26;;;;;;;5.60;3.55;;;;;;;17.11;72.14;101404.81;6203235;23;20009;-65
2022/10/05 10:01:10;;;;;;;5.50;3.15;;;;;;;17.18;71.48;101409.22;6216667;23;20008;-65
2022/10/05 10:03:55;;;;;;;5.00;3.30;;;;;;;17.25;71.43;101400.25;6216176;23;20009;-64
2022/10/05 10:06:56;;;;;;;6.53;3.55;;;;;;;17.25;70.51;101390.44;6216368;23;20340;-64
2022/10/05 10:09:33;;;;;;;6.35;3.30;;;;;;;17.35;71.36;101396.63;6170712;23;20008;-65
2022/10/05 10:12:04;;;;;;;6.43;3.67;;;;;;;17.41;71.80;101407.25;6216105;23;20004;-64
2022/10/05 10:15:14;;;;;;;5.70;3.22;;;;;;;17.47;70.68;101398.28;6216082;23;20050;-64
2022/10/05 10:18:06;;;;;;;8.30;3.33;;;;;;;17.56;71.15;101386.63;6190097;23;20009;-64
2022/10/05 10:20:56;;;;;;;7.72;3.70;;;;;;;17.76;70.31;101376.66;6189426;23;20005;-64
2022/10/05 10:23:27;;;;;;;6.63;3.30;;;;;;;17.90;69.71;101376.50;6216099;23;20420;-65
2022/10/05 10:26:00;;;;;;;6.85;3.42;;;;;;;18.04;69.50;101379.06;6216191;23;20001;-64
2022/10/05 10:28:40;;;;;;;5.22;3.08;;;;;;;18.23;68.53;101369.88;6216116;23;20004;-64
2022/10/05 10:31:31;;;;;;;7.10;3.33;;;;;;;18.39;67.64;101366.13;6215826;23;20004;-64
2022/10/05 10:34:18;;;;;;;5.53;3.30;;;;;;;18.84;67.97;101361.03;6215902;23;20008;-64
2022/10/05 10:37:21;;;;;;;6.43;3.40;;;;;;;19.22;66.31;101359.53;6215936;23;20008;-64
2022/10/05 10:39:56;;;;;;;6.55;3.30;;;;;;;19.16;64.10;101368.56;6215605;23;20335;-64
2022/10/05 10:42:36;;;;;;;9.15;3.30;;;;;;;18.96;65.24;101351.94;6215840;23;20050;-64
2022/10/05 10:45:44;;;;;;;6.68;3.47;;;;;;;18.72;65.50;101354.09;6215883;23;20008;-64
2022/10/05 10:48:29;;;;;;;8.43;3.28;;;;;;;18.81;65.94;101360.22;6094377;23;20021;-64
2022/10/05 10:51:13;;;;;;;5.10;3.30;;;;;;;18.88;65.58;101349.38;6207678;23;20066;-64
2022/10/05 10:54:02;;;;;;;5.88;3.30;;;;;;;18.91;65.06;101361.84;6215848;23;20012;-64
2022/10/05 10:56:53;;;;;;;9.45;3.75;;;;;;;19.02;65.94;101358.09;6216108;23;20319;-64
2022/10/05 10:59:40;;;;;;;6.75;3.08;;;;;;;19.03;65.21;101337.53;6215830;23;20001;-64
2022/10/05 11:02:35;;;;;;;4.78;2.95;;;;;;;18.99;65.26;101346.53;6215471;23;20008;-64
2022/10/05 11:05:02;;;;;;;6.05;3.10;;;;;;;19.09;65.37;101332.06;6216028;23;20008;-64
2022/10/05 11:07:51;;;;;;;10.95;3.08;;;;;;;19.13;65.31;101320.41;6215804;23;20008;-64
2022/10/05 11:10:48;;;;;;;6.40;3.25;;;;;;;19.13;64.82;101333.78;6216017;23;20055;-64
2022/10/05 11:13:23;;;;;;;8.57;3.17;;;;;;;19.17;65.42;101334.63;6215741;23;20062;-64
2022/10/05 11:16:16;;;;;;;7.25;3.17;;;;;;;19.17;65.27;101338.19;6216019;23;20009;-64
2022/10/05 11:19:09;;;;;;;6.60;2.97;;;;;;;19.27;65.07;101333.53;6215604;23;20005;-64
2022/10/05 11:22:15;;;;;;;6.13;3.00;;;;;;;19.31;64.22;101334.38;6215746;23;20001;-64
2022/10/05 11:24:49;;;;;;;7.30;3.15;;;;;;;19.36;63.99;101332.53;6181983;23;20019;-64
2022/10/05 11:27:45;;;;;;;5.90;2.78;;;;;;;19.34;64.08;101329.84;6215631;23;20009;-64
2022/10/05 11:30:13;;;;;;;9.98;3.03;;;;;;;19.35;64.09;101323.56;6215622;23;20009;-65
2022/10/05 11:32:38;;;;;;;6.25;2.78;;;;;;;19.42;64.09;101324.38;6215536;23;20005;-65
2022/10/05 11:35:25;;;;;;;6.97;2.90;;;;;;;19.42;64.66;101305.59;6215277;23;20507;-65
2022/10/05 11:38:22;;;;;;;6.45;2.90;;;;;;;19.47;64.47;101309.97;6215517;23;20012;-65
2022/10/05 11:40:56;;;;;;;5.13;2.65;;;;;;;19.63;63.45;101293.63;6215461;23;20004;-64
2022/10/05 11:43:50;;;;;;;7.28;2.72;;;;;;;19.81;63.28;101289.69;6215352;23;20435;-64
2022/10/05 11:46:26;;;;;;;5.70;2.60;;;;;;;20.04;61.83;101275.78;6215839;23;20008;-64
2022/10/05 11:49:00;;;;;;;6.20;2.58;;;;;;;20.25;61.73;101283.38;6215901;23;20083;-64
2022/10/05 11:52:04;;;;;;;5.68;2.72;;;;;;;20.43;62.07;101282.97;6215833;23;20063;-64
2022/10/05 11:55:04;;;;;;;6.90;2.78;;;;;;;20.73;60.80;101284.09;6215777;23;20009;-64
2022/10/05 11:58:00;;;;;;;5.38;2.72;;;;;;;20.84;59.79;101262.31;6215640;23;20024;-65
2022/10/05 12:00:39;;;;;;;7.93;3.03;;;;;;;20.68;60.38;101263.63;6214859;23;20012;-64
2022/10/05 12:03:52;;;;;;;5.45;2.90;;;;;;;20.69;60.31;101266.28;6215355;23;20012;-64
2022/10/05 12:06:47;;;;;;;6.18;2.90;;;;;;;20.68;60.26;101261.81;6123539;23;20014;-65
2022/10/05 12:09:33;;;;;;;4.85;2.65;;;;;;;20.98;60.62;101241.38;6123672;23;20429;-64
2022/10/05 12:12:10;;;;;;;3.72;2.40;;;;;;;21.16;58.90;101249.88;6197133;23;20009;-64
2022/10/05 12:14:54;;;;;;;5.00;2.67;;;;;;;21.31;59.09;101241.38;6188832;23;20008;-65
2022/10/05 12:17:26;;;;;;;3.85;2.60;;;;;;;21.45;58.24;101231.16;6215429;23;20012;-65
2022/10/05 12:20:04;;;;;;;6.47;2.47;;;;;;;21.68;58.05;101227.81;6215671;23;20051;-65
2022/10/05 12:22:39;;;;;;;3.47;2.30;;;;;;;21.60;57.74;101221.78;6215362;23;20013;-65
2022/10/05 12:25:23;;;;;;;4.88;2.35;;;;;;;21.50;57.33;101218.47;6215488;23;20078;-65
2022/10/05 12:27:53;;;;;;;4.65;2.50;;;;;;;21.31;57.35;101222.56;6215617;23;20005;-64
2022/10/05 12:30:46;;;;;;;3.15;2.45;;;;;;;21.31;57.80;101219.88;6189102;23;20009;-65
2022/10/05 12:33:21;;;;;;;9.23;2.45;;;;;;;21.63;57.34;101220.81;6214705;23;20039;-65